sensor_id;sensor_type;location;lat;lon;timestamp;temperature;humidity
8850;DHT22;5638;50.860;4.698;2022-12-07T00:01:33;8.80;99.90
8850;DHT22;5638;50.860;4.698;2022-12-07T00:04:02;8.80;99.90
8850;DHT22;5638;50.860;4.698;2022-12-07T00:06:31;8.70;99.90
8850;DHT22;5638;50.860;4.698;2022-12-07T00:09:02;8.70;99.90
8850;DHT22;5638;50.860;4.698;2022-12-07T00:11:33;8.70;99.90
8850;DHT22;5638;50.860;4.698;2022-12-07T00:14:01;8.70;99.90
8850;DHT22;5638;50.860;4.698;2022-12-07T00:16:31;8.70;99.90
8850;DHT22;5638;50.860;4.698;2022-12-07T00:19:02;8.60;99.90
8850;DHT22;5638;50.860;4.698;2022-12-07T00:21:34;8.50;99.90
8850;DHT22;5638;50.860;4.698;2022-12-07T00:24:02;8.50;99.90
8850;DHT22;5638;50.860;4.698;2022-12-07T00:26:31;8.60;99.90
8850;DHT22;5638;50.860;4.698;2022-12-07T00:29:00;8.50;99.90
8850;DHT22;5638;50.860;4.698;2022-12-07T00:31:33;8.60;99.90
8850;DHT22;5638;50.860;4.698;2022-12-07T00:34:05;8.60;99.90
8850;DHT22;5638;50.860;4.698;2022-12-07T00:36:32;8.70;99.90
8850;DHT22;5638;50.860;4.698;2022-12-07T00:38:59;8.70;99.90
8850;DHT22;5638;50.860;4.698;2022-12-07T00:41:29;8.60;99.90
8850;DHT22;5638;50.860;4.698;2022-12-07T00:43:56;8.70;99.90
8850;DHT22;5638;50.860;4.698;2022-12-07T00:46:23;8.70;99.90
8850;DHT22;5638;50.860;4.698;2022-12-07T00:48:50;8.70;99.90
8850;DHT22;5638;50.860;4.698;2022-12-07T00:51:18;8.50;99.90
8850;DHT22;5638;50.860;4.698;2022-12-07T00:53:47;8.30;99.90
8850;DHT22;5638;50.860;4.698;2022-12-07T00:56:27;8.30;99.90
8850;DHT22;5638;50.860;4.698;2022-12-07T00:58:56;8.20;99.90
8850;DHT22;5638;50.860;4.698;2022-12-07T01:01:26;8.20;99.90
8850;DHT22;5638;50.860;4.698;2022-12-07T01:03:54;8.20;99.90
8850;DHT22;5638;50.860;4.698;2022-12-07T01:06:22;8.10;99.90
8850;DHT22;5638;50.860;4.698;2022-12-07T01:08:49;8.20;99.90
8850;DHT22;5638;50.860;4.698;2022-12-07T01:11:17;8.20;99.90
8850;DHT22;5638;50.860;4.698;2022-12-07T01:13:45;8.20;99.90
8850;DHT22;5638;50.860;4.698;2022-12-07T01:16:14;8.20;99.90
8850;DHT22;5638;50.860;4.698;2022-12-07T01:18:41;8.20;99.90
8850;DHT22;5638;50.860;4.698;2022-12-07T01:21:11;8.30;99.90
8850;DHT22;5638;50.860;4.698;2022-12-07T01:23:40;8.30;99.90
8850;DHT22;5638;50.860;4.698;2022-12-07T01:26:10;8.10;99.90
8850;DHT22;5638;50.860;4.698;2022-12-07T01:28:37;8.20;99.90
8850;DHT22;5638;50.860;4.698;2022-12-07T01:31:15;8.10;99.90
8850;DHT22;5638;50.860;4.698;2022-12-07T01:33:46;8.20;99.90
8850;DHT22;5638;50.860;4.698;2022-12-07T01:36:26;8.20;99.90
8850;DHT22;5638;50.860;4.698;2022-12-07T01:38:59;8.20;99.90
8850;DHT22;5638;50.860;4.698;2022-12-07T01:41:30;8.10;99.90
8850;DHT22;5638;50.860;4.698;2022-12-07T01:44:08;8.20;99.90
8850;DHT22;5638;50.860;4.698;2022-12-07T01:46:34;8.10;99.90
8850;DHT22;5638;50.860;4.698;2022-12-07T01:49:00;8.10;99.90
8850;DHT22;5638;50.860;4.698;2022-12-07T01:51:29;8.10;99.90
8850;DHT22;5638;50.860;4.698;2022-12-07T01:53:55;8.10;99.90
8850;DHT22;5638;50.860;4.698;2022-12-07T01:56:25;8.10;99.90
8850;DHT22;5638;50.860;4.698;2022-12-07T01:58:54;8.00;99.90
8850;DHT22;5638;50.860;4.698;2022-12-07T02:01:22;8.00;99.90
8850;DHT22;5638;50.860;4.698;2022-12-07T02:03:48;8.00;99.90
8850;DHT22;5638;50.860;4.698;2022-12-07T02:06:19;8.00;99.90
8850;DHT22;5638;50.860;4.698;2022-12-07T02:08:49;8.00;99.90
8850;DHT22;5638;50.860;4.698;2022-12-07T02:11:15;8.00;99.90
8850;DHT22;5638;50.860;4.698;2022-12-07T02:13:43;8.10;99.90
8850;DHT22;5638;50.860;4.698;2022-12-07T02:16:36;8.00;99.90
8850;DHT22;5638;50.860;4.698;2022-12-07T02:28:36;7.90;99.90
8850;DHT22;5638;50.860;4.698;2022-12-07T02:31:14;7.80;99.90
8850;DHT22;5638;50.860;4.698;2022-12-07T02:33:54;7.90;99.90
8850;DHT22;5638;50.860;4.698;2022-12-07T02:36:55;7.90;99.90
8850;DHT22;5638;50.860;4.698;2022-12-07T02:39:40;7.80;99.90
8850;DHT22;5638;50.860;4.698;2022-12-07T02:42:18;7.80;99.90
8850;DHT22;5638;50.860;4.698;2022-12-07T02:44:48;7.80;99.90
8850;DHT22;5638;50.860;4.698;2022-12-07T02:47:17;7.70;99.90
8850;DHT22;5638;50.860;4.698;2022-12-07T02:49:46;7.70;99.90
8850;DHT22;5638;50.860;4.698;2022-12-07T02:52:13;7.70;99.90
8850;DHT22;5638;50.860;4.698;2022-12-07T02:54:38;7.80;99.90
8850;DHT22;5638;50.860;4.698;2022-12-07T02:57:52;7.80;99.90
8850;DHT22;5638;50.860;4.698;2022-12-07T03:00:15;7.70;99.90
8850;DHT22;5638;50.860;4.698;2022-12-07T03:02:55;7.80;99.90
8850;DHT22;5638;50.860;4.698;2022-12-07T03:11:14;8.00;99.90
8850;DHT22;5638;50.860;4.698;2022-12-07T03:13:55;8.00;99.90
8850;DHT22;5638;50.860;4.698;2022-12-07T03:16:33;8.00;99.90
8850;DHT22;5638;50.860;4.698;2022-12-07T03:19:07;8.00;99.90
8850;DHT22;5638;50.860;4.698;2022-12-07T03:21:40;8.00;99.90
8850;DHT22;5638;50.860;4.698;2022-12-07T03:24:17;7.90;99.90
8850;DHT22;5638;50.860;4.698;2022-12-07T03:27:03;8.00;99.90
8850;DHT22;5638;50.860;4.698;2022-12-07T03:29:42;8.10;99.90
8850;DHT22;5638;50.860;4.698;2022-12-07T03:32:26;8.10;99.90
8850;DHT22;5638;50.860;4.698;2022-12-07T03:35:07;8.10;99.90
8850;DHT22;5638;50.860;4.698;2022-12-07T03:38:00;8.00;99.90
8850;DHT22;5638;50.860;4.698;2022-12-07T03:43:37;7.90;99.90
8850;DHT22;5638;50.860;4.698;2022-12-07T03:46:20;8.00;99.90
8850;DHT22;5638;50.860;4.698;2022-12-07T03:52:18;7.90;99.90
8850;DHT22;5638;50.860;4.698;2022-12-07T03:54:59;8.00;99.90
8850;DHT22;5638;50.860;4.698;2022-12-07T03:57:32;7.90;99.90
8850;DHT22;5638;50.860;4.698;2022-12-07T04:00:00;8.00;99.90
8850;DHT22;5638;50.860;4.698;2022-12-07T04:02:29;8.00;99.90
8850;DHT22;5638;50.860;4.698;2022-12-07T04:04:56;8.10;99.90
8850;DHT22;5638;50.860;4.698;2022-12-07T04:07:22;8.10;99.90
8850;DHT22;5638;50.860;4.698;2022-12-07T04:09:48;8.10;99.90
8850;DHT22;5638;50.860;4.698;2022-12-07T04:12:13;7.90;99.90
8850;DHT22;5638;50.860;4.698;2022-12-07T04:14:39;7.80;99.90
8850;DHT22;5638;50.860;4.698;2022-12-07T04:17:05;7.70;99.90
8850;DHT22;5638;50.860;4.698;2022-12-07T04:19:33;7.70;99.90
8850;DHT22;5638;50.860;4.698;2022-12-07T04:22:01;7.60;99.90
8850;DHT22;5638;50.860;4.698;2022-12-07T04:24:29;7.70;99.90
8850;DHT22;5638;50.860;4.698;2022-12-07T04:26:56;7.70;99.90
8850;DHT22;5638;50.860;4.698;2022-12-07T04:29:22;7.70;99.90
8850;DHT22;5638;50.860;4.698;2022-12-07T04:31:49;7.60;99.90
8850;DHT22;5638;50.860;4.698;2022-12-07T04:34:16;7.60;99.90
8850;DHT22;5638;50.860;4.698;2022-12-07T04:36:42;7.60;99.90
8850;DHT22;5638;50.860;4.698;2022-12-07T04:39:19;7.60;99.90
8850;DHT22;5638;50.860;4.698;2022-12-07T04:41:45;7.50;99.90
8850;DHT22;5638;50.860;4.698;2022-12-07T04:44:13;7.50;99.90
8850;DHT22;5638;50.860;4.698;2022-12-07T04:46:40;7.50;99.90
8850;DHT22;5638;50.860;4.698;2022-12-07T04:49:07;7.40;99.90
8850;DHT22;5638;50.860;4.698;2022-12-07T04:51:33;7.40;99.90
8850;DHT22;5638;50.860;4.698;2022-12-07T04:53:58;7.50;99.90
8850;DHT22;5638;50.860;4.698;2022-12-07T04:56:25;7.50;99.90
8850;DHT22;5638;50.860;4.698;2022-12-07T04:58:52;7.50;99.90
8850;DHT22;5638;50.860;4.698;2022-12-07T05:01:20;7.50;99.90
8850;DHT22;5638;50.860;4.698;2022-12-07T05:03:46;7.40;99.90
8850;DHT22;5638;50.860;4.698;2022-12-07T05:06:13;7.40;99.90
8850;DHT22;5638;50.860;4.698;2022-12-07T05:08:39;7.40;99.90
8850;DHT22;5638;50.860;4.698;2022-12-07T05:11:06;7.40;99.90
8850;DHT22;5638;50.860;4.698;2022-12-07T05:13:33;7.40;99.90
8850;DHT22;5638;50.860;4.698;2022-12-07T05:16:01;7.40;99.90
8850;DHT22;5638;50.860;4.698;2022-12-07T05:18:27;7.30;99.90
8850;DHT22;5638;50.860;4.698;2022-12-07T05:20:53;7.40;99.90
8850;DHT22;5638;50.860;4.698;2022-12-07T05:23:20;7.40;99.90
8850;DHT22;5638;50.860;4.698;2022-12-07T05:25:46;7.50;99.90
8850;DHT22;5638;50.860;4.698;2022-12-07T05:28:12;7.40;99.90
8850;DHT22;5638;50.860;4.698;2022-12-07T05:30:38;7.40;99.90
8850;DHT22;5638;50.860;4.698;2022-12-07T05:33:04;7.40;99.90
8850;DHT22;5638;50.860;4.698;2022-12-07T05:35:30;7.30;99.90
8850;DHT22;5638;50.860;4.698;2022-12-07T05:37:56;7.50;99.90
8850;DHT22;5638;50.860;4.698;2022-12-07T05:40:23;7.50;99.90
8850;DHT22;5638;50.860;4.698;2022-12-07T05:42:49;7.50;99.90
8850;DHT22;5638;50.860;4.698;2022-12-07T05:45:15;7.50;99.90
8850;DHT22;5638;50.860;4.698;2022-12-07T05:47:41;7.50;99.90
8850;DHT22;5638;50.860;4.698;2022-12-07T05:50:07;7.50;99.90
8850;DHT22;5638;50.860;4.698;2022-12-07T05:52:33;7.50;99.90
8850;DHT22;5638;50.860;4.698;2022-12-07T05:54:59;7.50;99.90
8850;DHT22;5638;50.860;4.698;2022-12-07T05:57:25;7.50;99.90
8850;DHT22;5638;50.860;4.698;2022-12-07T05:59:50;7.50;99.90
8850;DHT22;5638;50.860;4.698;2022-12-07T06:02:16;7.30;99.90
8850;DHT22;5638;50.860;4.698;2022-12-07T06:04:45;7.30;99.90
8850;DHT22;5638;50.860;4.698;2022-12-07T06:07:13;7.30;99.90
8850;DHT22;5638;50.860;4.698;2022-12-07T06:09:41;7.20;99.90
8850;DHT22;5638;50.860;4.698;2022-12-07T06:12:10;7.30;99.90
8850;DHT22;5638;50.860;4.698;2022-12-07T06:14:56;7.30;99.90
8850;DHT22;5638;50.860;4.698;2022-12-07T06:17:22;7.40;99.90
8850;DHT22;5638;50.860;4.698;2022-12-07T06:19:48;7.40;99.90
8850;DHT22;5638;50.860;4.698;2022-12-07T06:22:13;7.40;99.90
8850;DHT22;5638;50.860;4.698;2022-12-07T06:24:42;7.40;99.90
8850;DHT22;5638;50.860;4.698;2022-12-07T06:27:09;7.40;99.90
8850;DHT22;5638;50.860;4.698;2022-12-07T06:29:35;7.30;99.90
8850;DHT22;5638;50.860;4.698;2022-12-07T06:32:02;7.40;99.90
8850;DHT22;5638;50.860;4.698;2022-12-07T06:34:28;7.30;99.90
8850;DHT22;5638;50.860;4.698;2022-12-07T06:36:54;7.40;99.90
8850;DHT22;5638;50.860;4.698;2022-12-07T06:39:25;7.50;99.90
8850;DHT22;5638;50.860;4.698;2022-12-07T06:41:53;7.30;99.90
8850;DHT22;5638;50.860;4.698;2022-12-07T06:44:20;7.40;99.90
8850;DHT22;5638;50.860;4.698;2022-12-07T06:46:47;7.50;99.90
8850;DHT22;5638;50.860;4.698;2022-12-07T06:49:14;7.40;99.90
8850;DHT22;5638;50.860;4.698;2022-12-07T06:51:41;7.40;99.90
8850;DHT22;5638;50.860;4.698;2022-12-07T06:54:09;7.40;99.90
8850;DHT22;5638;50.860;4.698;2022-12-07T06:56:36;7.40;99.90
8850;DHT22;5638;50.860;4.698;2022-12-07T06:59:04;7.40;99.90
8850;DHT22;5638;50.860;4.698;2022-12-07T07:01:32;7.40;99.90
8850;DHT22;5638;50.860;4.698;2022-12-07T07:03:59;7.30;99.90
8850;DHT22;5638;50.860;4.698;2022-12-07T07:06:25;7.30;99.90
8850;DHT22;5638;50.860;4.698;2022-12-07T07:08:51;7.40;99.90
8850;DHT22;5638;50.860;4.698;2022-12-07T07:11:17;7.40;99.90
8850;DHT22;5638;50.860;4.698;2022-12-07T07:13:43;7.40;99.90
8850;DHT22;5638;50.860;4.698;2022-12-07T07:16:10;7.30;99.90
8850;DHT22;5638;50.860;4.698;2022-12-07T07:18:36;7.40;99.90
8850;DHT22;5638;50.860;4.698;2022-12-07T07:21:03;7.40;99.90
8850;DHT22;5638;50.860;4.698;2022-12-07T07:23:29;7.50;99.90
8850;DHT22;5638;50.860;4.698;2022-12-07T07:25:55;7.50;99.90
8850;DHT22;5638;50.860;4.698;2022-12-07T07:28:21;7.60;99.90
8850;DHT22;5638;50.860;4.698;2022-12-07T07:30:47;7.60;99.90
8850;DHT22;5638;50.860;4.698;2022-12-07T07:33:13;7.70;99.90
8850;DHT22;5638;50.860;4.698;2022-12-07T07:35:40;7.70;99.90
8850;DHT22;5638;50.860;4.698;2022-12-07T07:38:07;7.70;99.90
8850;DHT22;5638;50.860;4.698;2022-12-07T07:40:34;7.60;99.90
8850;DHT22;5638;50.860;4.698;2022-12-07T07:43:01;7.60;99.90
8850;DHT22;5638;50.860;4.698;2022-12-07T07:45:27;7.50;99.90
8850;DHT22;5638;50.860;4.698;2022-12-07T07:47:53;7.60;99.90
8850;DHT22;5638;50.860;4.698;2022-12-07T07:50:19;7.60;99.90
8850;DHT22;5638;50.860;4.698;2022-12-07T07:52:46;7.50;99.90
8850;DHT22;5638;50.860;4.698;2022-12-07T07:55:13;7.50;99.90
8850;DHT22;5638;50.860;4.698;2022-12-07T07:57:40;7.60;99.90
8850;DHT22;5638;50.860;4.698;2022-12-07T08:00:15;7.60;99.90
8850;DHT22;5638;50.860;4.698;2022-12-07T08:02:42;7.60;99.90
8850;DHT22;5638;50.860;4.698;2022-12-07T08:05:12;7.60;99.90
8850;DHT22;5638;50.860;4.698;2022-12-07T08:07:39;7.60;99.90
8850;DHT22;5638;50.860;4.698;2022-12-07T08:10:05;7.60;99.90
8850;DHT22;5638;50.860;4.698;2022-12-07T08:12:36;7.60;99.90
8850;DHT22;5638;50.860;4.698;2022-12-07T08:15:27;7.70;99.90
8850;DHT22;5638;50.860;4.698;2022-12-07T08:17:55;7.70;99.90
8850;DHT22;5638;50.860;4.698;2022-12-07T08:20:21;7.80;99.90
8850;DHT22;5638;50.860;4.698;2022-12-07T08:22:47;7.70;99.90
8850;DHT22;5638;50.860;4.698;2022-12-07T08:25:13;7.70;99.90
8850;DHT22;5638;50.860;4.698;2022-12-07T08:27:38;7.60;99.90
8850;DHT22;5638;50.860;4.698;2022-12-07T08:30:05;7.50;99.90
8850;DHT22;5638;50.860;4.698;2022-12-07T08:32:31;7.60;99.90
8850;DHT22;5638;50.860;4.698;2022-12-07T08:34:57;7.60;99.90
8850;DHT22;5638;50.860;4.698;2022-12-07T08:37:22;7.90;99.90
8850;DHT22;5638;50.860;4.698;2022-12-07T08:39:48;8.90;99.90
8850;DHT22;5638;50.860;4.698;2022-12-07T08:42:14;10.00;99.90
8850;DHT22;5638;50.860;4.698;2022-12-07T08:44:40;10.90;99.90
8850;DHT22;5638;50.860;4.698;2022-12-07T08:47:06;11.50;99.90
8850;DHT22;5638;50.860;4.698;2022-12-07T08:49:41;11.90;99.90
8850;DHT22;5638;50.860;4.698;2022-12-07T08:52:11;12.30;99.90
8850;DHT22;5638;50.860;4.698;2022-12-07T08:54:38;12.70;99.90
8850;DHT22;5638;50.860;4.698;2022-12-07T08:57:06;13.10;99.90
8850;DHT22;5638;50.860;4.698;2022-12-07T08:59:34;13.30;99.90
8850;DHT22;5638;50.860;4.698;2022-12-07T09:02:01;13.10;99.90
8850;DHT22;5638;50.860;4.698;2022-12-07T09:04:27;13.10;99.90
8850;DHT22;5638;50.860;4.698;2022-12-07T09:06:54;12.40;99.90
8850;DHT22;5638;50.860;4.698;2022-12-07T09:09:21;11.70;99.90
8850;DHT22;5638;50.860;4.698;2022-12-07T09:11:46;11.40;99.90
8850;DHT22;5638;50.860;4.698;2022-12-07T09:14:13;10.90;99.90
8850;DHT22;5638;50.860;4.698;2022-12-07T09:16:39;10.40;99.90
8850;DHT22;5638;50.860;4.698;2022-12-07T09:19:07;10.10;99.90
8850;DHT22;5638;50.860;4.698;2022-12-07T09:21:34;9.80;99.90
8850;DHT22;5638;50.860;4.698;2022-12-07T09:23:59;9.60;99.90
8850;DHT22;5638;50.860;4.698;2022-12-07T09:26:25;9.40;99.90
8850;DHT22;5638;50.860;4.698;2022-12-07T09:28:51;9.20;99.90
8850;DHT22;5638;50.860;4.698;2022-12-07T09:31:17;9.10;99.90
8850;DHT22;5638;50.860;4.698;2022-12-07T09:33:43;9.00;99.90
8850;DHT22;5638;50.860;4.698;2022-12-07T09:36:09;8.90;99.90
8850;DHT22;5638;50.860;4.698;2022-12-07T09:38:35;8.80;99.90
8850;DHT22;5638;50.860;4.698;2022-12-07T09:41:06;8.70;99.90
8850;DHT22;5638;50.860;4.698;2022-12-07T09:43:37;8.60;99.90
8850;DHT22;5638;50.860;4.698;2022-12-07T09:46:05;8.50;99.90
8850;DHT22;5638;50.860;4.698;2022-12-07T09:48:36;8.40;99.90
8850;DHT22;5638;50.860;4.698;2022-12-07T09:51:16;8.40;99.90
8850;DHT22;5638;50.860;4.698;2022-12-07T09:53:45;8.40;99.90
8850;DHT22;5638;50.860;4.698;2022-12-07T09:56:14;8.50;99.90
8850;DHT22;5638;50.860;4.698;2022-12-07T09:58:41;8.70;99.90
8850;DHT22;5638;50.860;4.698;2022-12-07T10:03:59;8.60;99.90
8850;DHT22;5638;50.860;4.698;2022-12-07T10:06:42;8.70;99.90
8850;DHT22;5638;50.860;4.698;2022-12-07T10:09:19;8.80;99.90
8850;DHT22;5638;50.860;4.698;2022-12-07T10:12:06;8.80;99.90
8850;DHT22;5638;50.860;4.698;2022-12-07T10:14:40;8.80;99.90
8850;DHT22;5638;50.860;4.698;2022-12-07T10:17:48;8.90;99.90
8850;DHT22;5638;50.860;4.698;2022-12-07T10:20:27;9.00;99.90
8850;DHT22;5638;50.860;4.698;2022-12-07T10:23:04;9.00;99.90
8850;DHT22;5638;50.860;4.698;2022-12-07T10:25:38;9.10;99.90
8850;DHT22;5638;50.860;4.698;2022-12-07T10:28:13;9.20;99.90
8850;DHT22;5638;50.860;4.698;2022-12-07T10:33:52;9.20;99.90
8850;DHT22;5638;50.860;4.698;2022-12-07T10:36:27;9.30;99.90
8850;DHT22;5638;50.860;4.698;2022-12-07T10:39:19;9.30;99.90
8850;DHT22;5638;50.860;4.698;2022-12-07T10:42:01;9.30;99.90
8850;DHT22;5638;50.860;4.698;2022-12-07T10:44:30;9.40;99.90
8850;DHT22;5638;50.860;4.698;2022-12-07T10:59:00;10.40;99.90
8850;DHT22;5638;50.860;4.698;2022-12-07T11:02:15;10.50;99.90
8850;DHT22;5638;50.860;4.698;2022-12-07T11:08:13;10.40;99.90
8850;DHT22;5638;50.860;4.698;2022-12-07T11:13:48;10.30;99.90
8850;DHT22;5638;50.860;4.698;2022-12-07T11:19:26;10.10;99.90
8850;DHT22;5638;50.860;4.698;2022-12-07T11:22:06;10.20;99.90
8850;DHT22;5638;50.860;4.698;2022-12-07T11:28:11;10.30;99.90
8850;DHT22;5638;50.860;4.698;2022-12-07T11:33:49;11.60;99.90
8850;DHT22;5638;50.860;4.698;2022-12-07T11:36:35;11.90;99.90
8850;DHT22;5638;50.860;4.698;2022-12-07T11:42:05;11.90;99.90
8850;DHT22;5638;50.860;4.698;2022-12-07T11:47:30;11.70;99.90
8850;DHT22;5638;50.860;4.698;2022-12-07T11:50:16;11.40;99.90
8850;DHT22;5638;50.860;4.698;2022-12-07T11:53:10;11.50;99.90
8850;DHT22;5638;50.860;4.698;2022-12-07T11:56:00;11.70;99.90
8850;DHT22;5638;50.860;4.698;2022-12-07T12:01:39;12.40;99.90
8850;DHT22;5638;50.860;4.698;2022-12-07T12:04:34;12.60;99.90
8850;DHT22;5638;50.860;4.698;2022-12-07T12:07:06;13.40;99.90
8850;DHT22;5638;50.860;4.698;2022-12-07T12:09:41;13.60;99.90
8850;DHT22;5638;50.860;4.698;2022-12-07T12:16:06;13.70;99.90
8850;DHT22;5638;50.860;4.698;2022-12-07T12:21:28;13.50;99.90
8850;DHT22;5638;50.860;4.698;2022-12-07T12:23:59;13.20;99.90
8850;DHT22;5638;50.860;4.698;2022-12-07T12:26:33;12.80;99.90
8850;DHT22;5638;50.860;4.698;2022-12-07T12:29:05;12.50;99.90
8850;DHT22;5638;50.860;4.698;2022-12-07T12:31:36;12.20;99.90
8850;DHT22;5638;50.860;4.698;2022-12-07T12:36:54;11.60;99.90
8850;DHT22;5638;50.860;4.698;2022-12-07T12:39:19;11.50;99.90
8850;DHT22;5638;50.860;4.698;2022-12-07T12:49:38;11.20;99.90
8850;DHT22;5638;50.860;4.698;2022-12-07T12:55:11;10.80;99.90
8850;DHT22;5638;50.860;4.698;2022-12-07T12:57:40;10.60;99.90
8850;DHT22;5638;50.860;4.698;2022-12-07T13:00:16;10.90;99.90
8850;DHT22;5638;50.860;4.698;2022-12-07T13:03:20;11.00;99.90
8850;DHT22;5638;50.860;4.698;2022-12-07T13:06:18;11.40;99.90
8850;DHT22;5638;50.860;4.698;2022-12-07T13:08:47;12.10;99.90
8850;DHT22;5638;50.860;4.698;2022-12-07T13:17:10;13.60;99.90
8850;DHT22;5638;50.860;4.698;2022-12-07T13:27:57;14.00;99.90
8850;DHT22;5638;50.860;4.698;2022-12-07T13:30:28;13.80;99.90
8850;DHT22;5638;50.860;4.698;2022-12-07T13:32:58;13.70;99.90
8850;DHT22;5638;50.860;4.698;2022-12-07T13:35:36;13.40;99.90
8850;DHT22;5638;50.860;4.698;2022-12-07T13:38:21;13.30;99.90
8850;DHT22;5638;50.860;4.698;2022-12-07T13:43:53;12.60;99.90
8850;DHT22;5638;50.860;4.698;2022-12-07T13:46:47;12.30;99.90
8850;DHT22;5638;50.860;4.698;2022-12-07T13:49:23;12.10;99.90
8850;DHT22;5638;50.860;4.698;2022-12-07T13:51:51;12.10;99.90
8850;DHT22;5638;50.860;4.698;2022-12-07T13:54:19;12.00;99.90
8850;DHT22;5638;50.860;4.698;2022-12-07T13:56:52;11.70;99.90
8850;DHT22;5638;50.860;4.698;2022-12-07T13:59:24;11.50;99.90
8850;DHT22;5638;50.860;4.698;2022-12-07T14:01:52;11.60;99.90
8850;DHT22;5638;50.860;4.698;2022-12-07T14:04:33;11.60;99.90
8850;DHT22;5638;50.860;4.698;2022-12-07T14:07:24;11.40;99.90
8850;DHT22;5638;50.860;4.698;2022-12-07T14:09:56;11.40;99.90
8850;DHT22;5638;50.860;4.698;2022-12-07T14:12:28;11.10;99.90
8850;DHT22;5638;50.860;4.698;2022-12-07T14:14:56;11.00;99.90
8850;DHT22;5638;50.860;4.698;2022-12-07T14:17:25;11.00;99.90
8850;DHT22;5638;50.860;4.698;2022-12-07T14:20:00;10.90;99.90
8850;DHT22;5638;50.860;4.698;2022-12-07T14:22:35;10.80;99.90
8850;DHT22;5638;50.860;4.698;2022-12-07T14:25:25;10.70;99.90
8850;DHT22;5638;50.860;4.698;2022-12-07T14:28:00;10.70;99.90
8850;DHT22;5638;50.860;4.698;2022-12-07T14:30:32;10.70;99.90
8850;DHT22;5638;50.860;4.698;2022-12-07T14:33:04;10.80;99.90
8850;DHT22;5638;50.860;4.698;2022-12-07T14:35:32;10.80;99.90
8850;DHT22;5638;50.860;4.698;2022-12-07T14:38:02;10.80;99.90
8850;DHT22;5638;50.860;4.698;2022-12-07T14:40:29;10.70;99.90
8850;DHT22;5638;50.860;4.698;2022-12-07T14:43:03;10.70;99.90
8850;DHT22;5638;50.860;4.698;2022-12-07T14:45:37;10.70;99.90
8850;DHT22;5638;50.860;4.698;2022-12-07T14:48:05;10.70;99.90
8850;DHT22;5638;50.860;4.698;2022-12-07T14:50:36;10.60;99.90
8850;DHT22;5638;50.860;4.698;2022-12-07T14:53:13;10.40;99.90
8850;DHT22;5638;50.860;4.698;2022-12-07T14:55:41;10.40;99.90
8850;DHT22;5638;50.860;4.698;2022-12-07T14:58:14;10.40;99.90
8850;DHT22;5638;50.860;4.698;2022-12-07T15:00:42;10.30;99.90
8850;DHT22;5638;50.860;4.698;2022-12-07T15:03:10;10.20;99.90
8850;DHT22;5638;50.860;4.698;2022-12-07T15:05:36;10.10;99.90
8850;DHT22;5638;50.860;4.698;2022-12-07T15:08:03;9.90;99.90
8850;DHT22;5638;50.860;4.698;2022-12-07T15:10:31;9.90;99.90
8850;DHT22;5638;50.860;4.698;2022-12-07T15:13:02;9.80;99.90
8850;DHT22;5638;50.860;4.698;2022-12-07T15:15:49;9.90;99.90
8850;DHT22;5638;50.860;4.698;2022-12-07T15:18:16;9.90;99.90
8850;DHT22;5638;50.860;4.698;2022-12-07T15:20:43;9.90;99.90
8850;DHT22;5638;50.860;4.698;2022-12-07T15:23:10;9.90;99.90
8850;DHT22;5638;50.860;4.698;2022-12-07T15:25:40;9.90;99.90
8850;DHT22;5638;50.860;4.698;2022-12-07T15:28:06;9.80;99.90
8850;DHT22;5638;50.860;4.698;2022-12-07T15:30:32;9.70;99.90
8850;DHT22;5638;50.860;4.698;2022-12-07T15:32:59;9.50;99.90
8850;DHT22;5638;50.860;4.698;2022-12-07T15:35:25;9.60;99.90
8850;DHT22;5638;50.860;4.698;2022-12-07T15:37:51;9.40;99.90
8850;DHT22;5638;50.860;4.698;2022-12-07T15:40:17;9.40;99.90
8850;DHT22;5638;50.860;4.698;2022-12-07T15:42:43;9.40;99.90
8850;DHT22;5638;50.860;4.698;2022-12-07T15:45:09;9.30;99.90
8850;DHT22;5638;50.860;4.698;2022-12-07T15:47:43;9.30;99.90
8850;DHT22;5638;50.860;4.698;2022-12-07T15:50:14;9.30;99.90
8850;DHT22;5638;50.860;4.698;2022-12-07T15:52:42;9.30;99.90
8850;DHT22;5638;50.860;4.698;2022-12-07T15:55:11;9.20;99.90
8850;DHT22;5638;50.860;4.698;2022-12-07T15:57:38;9.20;99.90
8850;DHT22;5638;50.860;4.698;2022-12-07T16:00:08;9.20;99.90
8850;DHT22;5638;50.860;4.698;2022-12-07T16:02:36;9.20;99.90
8850;DHT22;5638;50.860;4.698;2022-12-07T16:05:03;9.10;99.90
8850;DHT22;5638;50.860;4.698;2022-12-07T16:07:29;9.10;99.90
8850;DHT22;5638;50.860;4.698;2022-12-07T16:09:55;9.10;99.90
8850;DHT22;5638;50.860;4.698;2022-12-07T16:12:21;9.10;99.90
8850;DHT22;5638;50.860;4.698;2022-12-07T16:14:47;9.10;99.90
8850;DHT22;5638;50.860;4.698;2022-12-07T16:17:12;9.10;99.90
8850;DHT22;5638;50.860;4.698;2022-12-07T16:19:38;9.10;99.90
8850;DHT22;5638;50.860;4.698;2022-12-07T16:22:04;9.10;99.90
8850;DHT22;5638;50.860;4.698;2022-12-07T16:24:31;9.20;99.90
8850;DHT22;5638;50.860;4.698;2022-12-07T16:26:57;9.20;99.90
8850;DHT22;5638;50.860;4.698;2022-12-07T16:29:23;9.20;99.90
8850;DHT22;5638;50.860;4.698;2022-12-07T16:31:50;9.30;99.90
8850;DHT22;5638;50.860;4.698;2022-12-07T16:34:16;9.40;99.90
8850;DHT22;5638;50.860;4.698;2022-12-07T16:36:43;9.40;99.90
8850;DHT22;5638;50.860;4.698;2022-12-07T16:39:09;9.40;99.90
8850;DHT22;5638;50.860;4.698;2022-12-07T16:41:35;9.40;99.90
8850;DHT22;5638;50.860;4.698;2022-12-07T16:44:07;9.50;99.90
8850;DHT22;5638;50.860;4.698;2022-12-07T16:46:36;9.50;99.90
8850;DHT22;5638;50.860;4.698;2022-12-07T16:49:02;9.50;99.90
8850;DHT22;5638;50.860;4.698;2022-12-07T16:51:28;9.60;99.90
8850;DHT22;5638;50.860;4.698;2022-12-07T16:53:55;9.50;99.90
8850;DHT22;5638;50.860;4.698;2022-12-07T16:56:21;9.50;99.90
8850;DHT22;5638;50.860;4.698;2022-12-07T16:58:47;9.50;99.90
8850;DHT22;5638;50.860;4.698;2022-12-07T17:01:20;9.50;99.90
8850;DHT22;5638;50.860;4.698;2022-12-07T17:03:50;9.40;99.90
8850;DHT22;5638;50.860;4.698;2022-12-07T17:06:23;9.50;99.90
8850;DHT22;5638;50.860;4.698;2022-12-07T17:08:51;9.50;99.90
8850;DHT22;5638;50.860;4.698;2022-12-07T17:11:23;9.50;99.90
8850;DHT22;5638;50.860;4.698;2022-12-07T17:13:51;9.50;99.90
8850;DHT22;5638;50.860;4.698;2022-12-07T17:16:36;9.40;99.90
8850;DHT22;5638;50.860;4.698;2022-12-07T17:19:07;9.30;99.90
8850;DHT22;5638;50.860;4.698;2022-12-07T17:21:35;9.30;99.90
8850;DHT22;5638;50.860;4.698;2022-12-07T17:24:03;9.40;99.90
8850;DHT22;5638;50.860;4.698;2022-12-07T17:26:32;9.40;99.90
8850;DHT22;5638;50.860;4.698;2022-12-07T17:28:59;9.30;99.90
8850;DHT22;5638;50.860;4.698;2022-12-07T17:31:26;9.30;99.90
8850;DHT22;5638;50.860;4.698;2022-12-07T17:33:52;9.30;99.90
8850;DHT22;5638;50.860;4.698;2022-12-07T17:36:27;9.20;99.90
8850;DHT22;5638;50.860;4.698;2022-12-07T17:38:55;9.30;99.90
8850;DHT22;5638;50.860;4.698;2022-12-07T17:41:24;9.20;99.90
8850;DHT22;5638;50.860;4.698;2022-12-07T17:44:17;9.30;99.90
8850;DHT22;5638;50.860;4.698;2022-12-07T17:46:45;9.20;99.90
8850;DHT22;5638;50.860;4.698;2022-12-07T17:49:13;9.20;99.90
8850;DHT22;5638;50.860;4.698;2022-12-07T17:51:40;9.10;99.90
8850;DHT22;5638;50.860;4.698;2022-12-07T17:54:24;9.10;99.90
8850;DHT22;5638;50.860;4.698;2022-12-07T17:56:51;9.00;99.90
8850;DHT22;5638;50.860;4.698;2022-12-07T17:59:17;9.10;99.90
8850;DHT22;5638;50.860;4.698;2022-12-07T18:01:45;9.10;99.90
8850;DHT22;5638;50.860;4.698;2022-12-07T18:04:11;9.00;99.90
8850;DHT22;5638;50.860;4.698;2022-12-07T18:06:37;8.90;99.90
8850;DHT22;5638;50.860;4.698;2022-12-07T18:09:05;8.90;99.90
8850;DHT22;5638;50.860;4.698;2022-12-07T18:11:32;8.90;99.90
8850;DHT22;5638;50.860;4.698;2022-12-07T18:13:58;8.80;99.90
8850;DHT22;5638;50.860;4.698;2022-12-07T18:16:26;8.90;99.90
8850;DHT22;5638;50.860;4.698;2022-12-07T18:18:54;8.90;99.90